createdAt,value
2023-04-20T00:02:42.352Z,99.19
2023-04-20T00:07:48.582Z,99.73
2023-04-20T00:12:54.221Z,99.80
2023-04-20T00:17:59.701Z,99.92
2023-04-20T00:23:05.628Z,99.95
2023-04-20T00:28:11.101Z,99.85
2023-04-20T00:33:16.713Z,99.99
2023-04-20T00:38:22.524Z,99.71
2023-04-20T00:43:28.214Z,99.28
2023-04-20T00:48:34.314Z,99.58
2023-04-20T00:53:40.820Z,99.69
2023-04-20T00:58:47.023Z,99.17
2023-04-20T01:03:52.735Z,98.95
2023-04-20T01:08:58.354Z,98.85
2023-04-20T01:14:03.834Z,98.99
2023-04-20T01:19:10.091Z,98.77
2023-04-20T01:24:15.689Z,98.78
2023-04-20T01:29:21.150Z,98.56
2023-04-20T01:34:26.936Z,98.56
2023-04-20T01:39:33.028Z,98.67
2023-04-20T01:44:39.055Z,98.90
2023-04-20T01:49:45.160Z,98.84
2023-04-20T01:54:50.736Z,98.59
2023-04-20T01:59:56.300Z,98.49
2023-04-20T02:05:01.824Z,98.21
2023-04-20T02:10:08.614Z,98.11
2023-04-20T02:15:14.222Z,97.71
2023-04-20T02:20:20.388Z,97.97
2023-04-20T02:25:25.896Z,97.85
2023-04-20T02:30:31.639Z,97.98
2023-04-20T02:35:37.050Z,97.99
2023-04-20T02:40:42.982Z,97.84
2023-04-20T02:45:48.879Z,97.64
2023-04-20T02:50:57.752Z,97.89
2023-04-20T02:56:06.050Z,97.87
2023-04-20T03:01:21.051Z,98.09
2023-04-20T03:06:28.426Z,98.76
2023-04-20T03:11:35.531Z,99.56
2023-04-20T03:16:42.274Z,100.00
2023-04-20T03:21:49.144Z,100.00
2023-04-20T03:26:55.185Z,100.00
2023-04-20T03:32:12.446Z,99.95
2023-04-20T03:37:18.159Z,99.86
2023-04-20T03:42:26.003Z,99.48
2023-04-20T03:47:34.172Z,99.29
2023-04-20T03:52:39.634Z,99.27
2023-04-20T03:57:45.306Z,99.44
2023-04-20T04:02:51.075Z,99.58
2023-04-20T04:08:03.355Z,99.94
2023-04-20T04:13:09.763Z,99.99
2023-04-20T04:18:15.606Z,99.92
2023-04-20T04:23:21.725Z,99.90
2023-04-20T04:28:33.002Z,99.54
2023-04-20T04:33:50.361Z,99.59
2023-04-20T04:39:06.678Z,99.35
2023-04-20T04:44:12.195Z,98.51
2023-04-20T04:49:18.835Z,97.78
2023-04-20T04:54:24.742Z,97.75
2023-04-20T04:59:31.028Z,97.49
2023-04-20T05:04:36.628Z,97.04
2023-04-20T05:09:42.737Z,96.57
2023-04-20T05:14:48.512Z,95.62
2023-04-20T05:19:54.447Z,94.22
2023-04-20T05:25:00.223Z,92.56
2023-04-20T05:35:19.177Z,86.54
2023-04-20T05:40:25.056Z,84.70
2023-04-20T05:45:32.917Z,84.69
2023-04-20T05:50:38.710Z,83.73
2023-04-20T05:55:44.217Z,83.57
2023-04-20T06:00:49.747Z,83.58
2023-04-20T06:05:55.353Z,80.18
2023-04-20T06:11:01.380Z,76.53
2023-04-20T06:16:09.830Z,74.72
2023-04-20T06:21:17.333Z,72.24
2023-04-20T06:26:23.325Z,71.08
2023-04-20T06:31:29.569Z,68.20
2023-04-20T06:36:35.039Z,62.29
2023-04-20T06:41:40.701Z,53.94
2023-04-20T06:46:46.371Z,49.44
2023-04-20T06:51:51.910Z,46.37
2023-04-20T06:56:57.829Z,44.40
2023-04-20T07:02:03.329Z,41.15
2023-04-20T07:07:08.897Z,40.19
2023-04-20T07:12:15.897Z,38.26
2023-04-20T07:17:21.413Z,36.45
2023-04-20T07:22:26.987Z,34.39
2023-04-20T07:27:36.671Z,33.15
2023-04-20T07:32:42.389Z,35.93
2023-04-20T07:37:48.046Z,35.72
2023-04-20T07:42:53.473Z,34.24
2023-04-20T07:48:01.572Z,31.13
2023-04-20T07:53:07.326Z,29.88
2023-04-20T07:58:14.112Z,29.05
2023-04-20T08:03:19.812Z,28.73
2023-04-20T08:08:25.858Z,27.74
2023-04-20T08:13:32.261Z,27.37
2023-04-20T08:18:37.753Z,28.46
2023-04-20T08:23:43.416Z,30.38
2023-04-20T08:28:48.854Z,32.20
2023-04-20T08:33:54.479Z,32.52
2023-04-20T08:39:08.060Z,32.73
2023-04-20T08:44:13.633Z,32.63
2023-04-20T08:49:20.016Z,33.04
2023-04-20T08:54:25.997Z,32.72
2023-04-20T08:59:33.041Z,33.22
2023-04-20T09:04:39.248Z,30.43
2023-04-20T09:09:55.728Z,30.57
2023-04-20T09:15:01.652Z,29.41
2023-04-20T09:20:09.288Z,26.71
2023-04-20T09:25:16.346Z,27.87
2023-04-20T09:30:22.088Z,25.48
2023-04-20T09:35:27.966Z,26.56
2023-04-20T09:40:33.906Z,25.10
2023-04-20T09:45:40.685Z,24.65
2023-04-20T09:50:51.134Z,22.99
2023-04-20T09:55:58.440Z,22.44
2023-04-20T10:01:03.994Z,22.33
2023-04-20T10:06:20.478Z,23.50
2023-04-20T10:11:40.549Z,22.36
2023-04-20T10:17:01.240Z,23.33
2023-04-20T10:22:08.218Z,24.37
2023-04-20T10:27:21.350Z,24.66
2023-04-20T10:32:29.475Z,22.81
2023-04-20T10:37:35.977Z,22.12
2023-04-20T10:42:45.306Z,23.04
2023-04-20T10:47:50.879Z,22.92
2023-04-20T10:52:56.405Z,21.92
2023-04-20T10:58:01.752Z,21.40
2023-04-20T11:03:11.414Z,21.81
2023-04-20T11:08:17.037Z,22.20
2023-04-20T11:13:25.540Z,22.21
2023-04-20T11:18:32.449Z,22.37
2023-04-20T11:23:42.018Z,22.34
2023-04-20T11:28:56.326Z,22.22
2023-04-20T11:34:02.875Z,23.57
2023-04-20T11:39:12.986Z,22.28
2023-04-20T11:44:20.933Z,24.29
2023-04-20T11:49:28.082Z,22.14
2023-04-20T11:54:35.141Z,23.32
2023-04-20T11:59:42.912Z,22.77
2023-04-20T12:04:48.570Z,23.88
2023-04-20T12:09:54.308Z,23.33
2023-04-20T12:14:59.814Z,23.19
2023-04-20T12:20:12.247Z,24.52
2023-04-20T12:25:18.058Z,25.16
2023-04-20T12:30:23.696Z,24.45
2023-04-20T12:35:29.296Z,23.78
2023-04-20T12:40:34.929Z,24.31
2023-04-20T12:45:40.452Z,25.06
2023-04-20T12:50:45.797Z,25.55
2023-04-20T12:55:57.864Z,24.13
2023-04-20T13:01:09.458Z,24.57
2023-04-20T13:06:16.126Z,25.83
2023-04-20T13:11:22.116Z,26.28
2023-04-20T13:16:28.656Z,26.92
2023-04-20T13:21:34.189Z,27.59
2023-04-20T13:26:40.224Z,27.57
2023-04-20T13:31:47.725Z,27.75
2023-04-20T13:36:53.641Z,26.93
2023-04-20T13:41:59.361Z,26.13
2023-04-20T13:47:04.919Z,26.33
2023-04-20T13:52:10.817Z,26.58
2023-04-20T13:57:16.620Z,26.94
2023-04-20T14:02:22.139Z,27.09
2023-04-20T14:07:28.402Z,27.36
2023-04-20T14:12:34.237Z,28.09
2023-04-20T14:17:39.918Z,27.12
2023-04-20T14:22:45.436Z,26.81
2023-04-20T14:27:50.838Z,26.54
2023-04-20T14:32:58.039Z,26.93
2023-04-20T14:38:03.828Z,27.77
2023-04-20T14:43:09.351Z,28.09
2023-04-20T14:48:15.041Z,27.78
2023-04-20T14:53:22.344Z,27.64
2023-04-20T14:58:29.291Z,26.81
2023-04-20T15:03:35.046Z,26.72
2023-04-20T15:08:40.926Z,27.13
2023-04-20T15:13:47.129Z,27.65
2023-04-20T15:18:54.683Z,27.84
2023-04-20T15:24:00.258Z,28.41
2023-04-20T15:29:05.787Z,27.88
2023-04-20T15:34:15.076Z,27.46
2023-04-20T15:39:20.902Z,27.12
2023-04-20T15:44:27.546Z,27.70
2023-04-20T15:49:35.785Z,27.54
2023-04-20T15:54:41.281Z,28.07
2023-04-20T15:59:46.666Z,28.12
2023-04-20T16:04:52.352Z,27.87
2023-04-20T16:09:58.105Z,28.10
2023-04-20T16:15:04.390Z,28.58
2023-04-20T16:20:11.978Z,28.90
2023-04-20T16:25:23.027Z,29.73
2023-04-20T16:30:29.465Z,30.18
2023-04-20T16:35:34.878Z,30.62
2023-04-20T16:40:42.404Z,31.11
2023-04-20T16:45:47.961Z,31.48
2023-04-20T16:50:53.697Z,31.81
2023-04-20T16:55:59.277Z,32.37
2023-04-20T17:01:05.379Z,32.80
2023-04-20T17:06:11.223Z,33.09
2023-04-20T17:11:19.262Z,33.38
2023-04-20T17:16:24.699Z,33.40
2023-04-20T17:21:30.733Z,33.66
2023-04-20T17:26:36.077Z,33.89
2023-04-20T17:31:41.611Z,33.83
2023-04-20T17:36:47.038Z,34.04
2023-04-20T17:41:52.342Z,34.27
2023-04-20T17:46:59.334Z,34.77
2023-04-20T17:52:05.195Z,35.06
2023-04-20T17:57:10.788Z,35.44
2023-04-20T18:02:16.726Z,36.06
2023-04-20T18:07:22.597Z,36.30
2023-04-20T18:12:33.907Z,36.73
2023-04-20T18:17:40.478Z,37.30
2023-04-20T18:22:50.941Z,37.91
2023-04-20T18:27:56.659Z,38.69
2023-04-20T18:33:02.939Z,40.21
2023-04-20T18:38:08.804Z,42.40
2023-04-20T18:43:14.455Z,44.15
2023-04-20T18:48:20.201Z,45.13
2023-04-20T18:53:25.790Z,45.72
2023-04-20T18:58:32.551Z,44.67
2023-04-20T19:03:38.460Z,44.60
2023-04-20T19:08:43.909Z,44.62
2023-04-20T19:13:49.442Z,44.52
2023-04-20T19:18:56.700Z,44.82
2023-04-20T19:24:02.498Z,45.00
2023-04-20T19:29:07.838Z,44.99
2023-04-20T19:34:13.501Z,45.19
2023-04-20T19:39:19.724Z,45.51
2023-04-20T19:44:25.710Z,45.72
2023-04-20T19:49:31.576Z,45.79
2023-04-20T19:54:37.034Z,46.07
2023-04-20T19:59:42.788Z,46.41
2023-04-20T20:04:49.568Z,46.70
2023-04-20T20:09:55.411Z,46.92
2023-04-20T20:15:10.026Z,47.28
2023-04-20T20:20:15.639Z,47.90
2023-04-20T20:25:21.099Z,48.15
2023-04-20T20:30:26.558Z,48.52
2023-04-20T20:35:33.372Z,48.55
2023-04-20T20:40:42.427Z,48.76
2023-04-20T20:45:47.836Z,49.00
2023-04-20T20:50:53.355Z,49.16
2023-04-20T20:55:58.909Z,49.54
2023-04-20T21:01:04.743Z,49.58
2023-04-20T21:10:02.464Z,49.82
2023-04-20T21:15:10.343Z,50.27
2023-04-20T21:20:16.113Z,50.44
2023-04-20T21:25:21.815Z,50.45
2023-04-20T21:30:28.329Z,50.74
2023-04-20T21:35:33.740Z,50.93
2023-04-20T21:40:39.570Z,51.02
2023-04-20T21:45:45.449Z,51.28
2023-04-20T21:50:50.884Z,51.41
2023-04-20T21:55:56.418Z,51.61
2023-04-20T22:01:01.821Z,51.74
2023-04-20T22:06:07.975Z,51.93
2023-04-20T22:11:14.240Z,52.34
2023-04-20T22:16:21.209Z,52.41
2023-04-20T22:21:26.792Z,52.80
2023-04-20T22:26:32.293Z,53.11
2023-04-20T22:31:38.109Z,53.30
2023-04-20T22:36:43.743Z,53.40
2023-04-20T22:41:49.261Z,53.83
2023-04-20T22:46:55.024Z,54.19
2023-04-20T22:52:00.509Z,54.68
2023-04-20T22:57:06.432Z,55.08
2023-04-20T23:02:12.253Z,55.37
2023-04-20T23:07:19.544Z,55.88
2023-04-20T23:12:26.393Z,56.22
2023-04-20T23:17:32.438Z,56.27
2023-04-20T23:22:37.923Z,56.66
2023-04-20T23:27:43.348Z,57.06
2023-04-20T23:32:48.726Z,57.69
2023-04-20T23:37:55.637Z,58.12
2023-04-20T23:43:01.410Z,58.55
2023-04-20T23:48:07.637Z,59.01
2023-04-20T23:53:13.062Z,59.42
2023-04-20T23:58:19.633Z,59.92
